Young America, Minnesota
Current Conditions -  °F | °C
As of 8:14 AM on Thursday 27 Nov 2014 (Local Time) from KGYL Reporting Station
Clear Clear  
Wind Chill: -19°   Ceiling: Unl
Heat Index: -6°   Visibility: 10mi
Dew Point: -10°   Wind: 6mph
Humidity: 86%   Direction: 300°WNW
Pressure: 30.5"   Gusts: NA
Location:  44.78°N, 93.92°W
Report Text: KGYL 271414Z AUTO 30005KT 10SM CLR M21/M23 A3050 RMK AO2 T12131231
Loading
Personal Weather Stations






























Interactive Weather Map New forecast layout! Learn more

10-Day Weather Forecast

Advertisements
Track Severe Weather on mobile